Camden, Mississippi
Current Conditions -  °F | °C
As of 10:54 AM on Tuesday 21 Oct 2014 (Local Time) from KJAN Reporting Station
Clear Clear  
Wind Chill: 72°   Ceiling: Unl
Heat Index: 72°   Visibility: 10mi
Dew Point: 53°   Wind: 5mph
Humidity: 51%   Direction: NA
Pressure: 30.1"   Gusts: NA
Location:  32.78°N, 89.84°W
Report Text: KJAN 211554Z VRB04KT 10SM CLR 22/12 A3010 RMK AO2 SLP190 T02220117
Loading
Personal Weather Stations






























Interactive Weather Map
Tropical Storm Tracking
New forecast layout! Learn more

10-Day Weather Forecast

Advertisements
Track Severe Weather on mobile